Terminal Aerodrome Forecast
Issued by NWS

Home | Current Version | Previous Version | Text Only | Print | Product List | Glossary On
Versions: 1 2 3 4 5 6 7 8 9 10 11 12
000
FTUS46 KLOX 181700
TAFSBA
TAF
KSBA 181737Z 1818/1918 15010KT P6SM SKC
     FM182000 24009KT P6SM SKC
     FM190300 VRB03KT P6SM SKC
     FM191100 VRB03KT 4SM BR BKN007
     FM191300 13005KT 3SM BR OVC005=

USA.gov is the U.S. government's official web portal to all federal, state and local government web resources and services.